Terminal Aerodrome Forecast
Issued by NWS

Home | Current Version | Previous Version | Graphics & Text | Print | Product List | Glossary On
Versions: 1 2 3 4 5 6 7 8 9 10 11 12 13 14 15 16 17 18 19 20 21 22
676
FTUS43 KLSX 271129
TAFSUS
TAF
KSUS 271129Z 2712/2812 00000KT 5SM BR FEW070
      TEMPO 2712/2714 2SM BR
     FM271400 14005KT P6SM FEW030
     FM280500 16009KT P6SM VCTS BKN025CB
     FM280900 17009KT P6SM BKN015=

USA.gov is the U.S. government's official web portal to all federal, state and local government web resources and services.